Saturday, January 20, 2018, 10:04 AM EST
Back to Local

KNUI, Knui Webster Field Annex

Location: Saint Inigoes, MD, United States Lat: 38.15
Local Time: 10:04 AM EST (15:04 GMT) Lon: -76.417
Time Zone: US/Eastern Elev: 19 ft

Show me the last for .
Show Decoded

2018-01-20 09:53 METAR KNUI 201453Z AUTO 24004KT 10SM CLR 05/M09 A3005 RMK AO2 SLP176 T00501089
                 53009 =
2018-01-20 08:53 METAR KNUI 201353Z AUTO 23005KT 10SM CLR 03/M08 A3004 RMK AO2 SLP172 T00281078 =
2018-01-20 07:53 METAR KNUI 201253Z AUTO 20004KT 9SM CLR M01/M08 A3003 RMK AO2 SLP170 T10061078 =
2018-01-20 06:53 METAR KNUI 201153Z AUTO 00000KT 10SM CLR M03/M07 A3003 RMK AO2 SLP167 T10331072
                 11017 21033 53006 =
2018-01-20 05:53 METAR KNUI 201053Z AUTO 00000KT 10SM CLR M03/M08 A3001 RMK AO2 SLP162 T10281078
                 =
2018-01-20 04:53 METAR KNUI 200953Z AUTO 00000KT 10SM CLR M02/M08 A3001 RMK AO2 SLP161 T10221078
                 =
2018-01-20 03:53 METAR KNUI 200853Z AUTO 00000KT 10SM CLR M03/M08 A3001 RMK AO2 SLP161 T10281078
                 56008 =
2018-01-20 01:53 METAR KNUI 200653Z AUTO 00000KT 10SM CLR M02/M07 A3002 RMK AO2 SLP165 T10171067
                 =
2018-01-20 00:53 METAR KNUI 200553Z AUTO 00000KT 10SM CLR M02/M06 A3003 RMK AO2 SLP170 T10221061
                 10006 21028 58008 =
2018-01-19 23:53 METAR KNUI 200453Z AUTO 00000KT 9SM CLR M03/M06 A3005 RMK AO2 SLP174 T10281056
                 401001050 =
2018-01-19 22:53 METAR KNUI 200353Z AUTO 00000KT 9SM CLR M02/M06 A3005 RMK AO2 SLP176 T10221056 =
2018-01-19 21:53 METAR KNUI 200253Z AUTO 00000KT 9SM CLR M01/M06 A3006 RMK AO2 SLP178 T10111056
                 58002 =
2018-01-19 20:53 METAR KNUI 200153Z AUTO 00000KT 9SM CLR M02/M06 A3006 RMK AO2 SLP179 T10221056 =
2018-01-19 19:53 METAR KNUI 200053Z AUTO 00000KT 10SM CLR M01/M06 A3007 RMK AO2 SLP181 T10111061
                 =
2018-01-19 18:53 METAR KNUI 192353Z AUTO 00000KT 9SM CLR 00/M08 A3007 RMK AO2 SLP180 T00001078
                 10100 20000 55000 =
2018-01-19 17:53 METAR KNUI 192253Z AUTO 11005KT 10SM CLR 02/M09 A3006 RMK AO2 SLP177 T00221089 =
2018-01-19 16:53 METAR KNUI 192153Z AUTO 11004KT 9SM CLR 05/M11 A3006 RMK AO2 SLP178 T00501106 =
2018-01-19 15:53 METAR KNUI 192053Z AUTO 11006KT 10SM CLR 08/M10 A3007 RMK AO2 SLP180 T00781100
                 55007 =
2018-01-19 14:53 METAR KNUI 191953Z AUTO 12003KT 10SM CLR 09/M11 A3006 RMK AO2 SLP178 T00941111 =
2018-01-19 13:53 METAR KNUI 191853Z AUTO 21003KT 10SM CLR 08/M09 A3007 RMK AO2 SLP182 T00831094 =
2018-01-19 12:53 METAR KNUI 191753Z AUTO 20007KT 10SM CLR 06/M07 A3009 RMK AO2 SLP187 T00611072
                 10061 21039 58025 =
2018-01-19 11:53 METAR KNUI 191653Z AUTO 22006KT 10SM CLR 04/M07 A3013 RMK AO2 SLP202 T00441072 =
2018-01-19 10:53 METAR KNUI 191553Z AUTO 00000KT 10SM CLR 04/M07 A3015 RMK AO2 SLP210 T00441072 =

Support USWX by starting your Amazon purchase here.